createdAt,value
2022-12-05T00:04:08.545Z,44.73
2022-12-05T00:09:13.291Z,46.23
2022-12-05T00:14:17.364Z,46.13
2022-12-05T00:19:20.395Z,55.13
2022-12-05T00:24:23.500Z,60.90
2022-12-05T00:29:26.480Z,68.03
2022-12-05T00:34:29.549Z,61.80
2022-12-05T00:39:32.640Z,60.67
2022-12-05T00:44:35.625Z,62.10
2022-12-05T00:49:38.666Z,49.43
2022-12-05T00:54:41.632Z,48.57
2022-12-05T00:59:44.884Z,45.10
2022-12-05T01:04:49.878Z,47.00
2022-12-05T01:09:52.937Z,45.87
2022-12-05T01:14:56.055Z,47.07
2022-12-05T01:19:59.349Z,44.57
2022-12-05T01:25:03.192Z,40.20
2022-12-05T01:30:06.962Z,44.87
2022-12-05T01:35:10.438Z,43.80
2022-12-05T01:40:13.493Z,41.17
2022-12-05T01:45:47.689Z,39.57
2022-12-05T01:50:51.609Z,40.97
2022-12-05T01:55:55.391Z,39.70
2022-12-05T02:00:58.597Z,38.43
2022-12-05T02:06:03.552Z,39.23
2022-12-05T02:11:08.697Z,42.20
2022-12-05T02:16:36.400Z,39.37
2022-12-05T02:21:42.208Z,41.83
2022-12-05T02:26:54.397Z,41.00
2022-12-05T02:32:34.838Z,40.67
2022-12-05T02:38:04.166Z,36.50
2022-12-05T02:43:25.056Z,40.93
2022-12-05T02:48:29.501Z,36.50
2022-12-05T02:53:33.160Z,36.47
2022-12-05T02:58:52.438Z,37.80
2022-12-05T03:03:56.673Z,32.40
2022-12-05T03:09:05.425Z,32.33
2022-12-05T03:14:13.972Z,36.30
2022-12-05T03:19:25.907Z,36.33
2022-12-05T03:24:30.191Z,39.13
2022-12-05T03:29:56.518Z,34.87
2022-12-05T03:35:07.408Z,37.80
2022-12-05T03:40:40.006Z,35.60
2022-12-05T03:46:18.001Z,34.73
2022-12-05T03:51:23.679Z,34.97
2022-12-05T03:56:41.928Z,35.13
2022-12-05T04:01:47.295Z,31.50
2022-12-05T04:06:54.785Z,37.57
2022-12-05T04:12:12.765Z,31.20
2022-12-05T04:17:53.469Z,35.67
2022-12-05T04:22:57.296Z,55.50
2022-12-05T04:28:21.474Z,66.93
2022-12-05T04:33:43.228Z,74.63
2022-12-05T04:38:55.500Z,82.50
2022-12-05T04:44:02.212Z,94.57
2022-12-05T04:49:08.921Z,83.70
2022-12-05T04:54:31.187Z,81.57
2022-12-05T04:59:34.968Z,82.93
2022-12-05T05:04:47.119Z,86.97
2022-12-05T05:09:50.143Z,85.63
2022-12-05T05:14:53.327Z,87.73
2022-12-05T05:20:19.850Z,82.53
2022-12-05T05:25:25.412Z,82.13
2022-12-05T05:30:28.424Z,69.23
2022-12-05T05:35:31.399Z,69.33
2022-12-05T05:40:37.793Z,68.77
2022-12-05T05:45:40.722Z,63.37
2022-12-05T05:50:43.704Z,66.27
2022-12-05T05:55:47.311Z,59.03
2022-12-05T06:00:50.473Z,70.03
2022-12-05T06:05:58.632Z,68.50
2022-12-05T06:11:09.374Z,63.47
2022-12-05T06:16:14.705Z,65.20
2022-12-05T06:21:18.138Z,63.90
2022-12-05T06:26:22.378Z,65.03
2022-12-05T06:31:31.946Z,66.33
2022-12-05T06:36:35.020Z,66.57
2022-12-05T06:41:38.009Z,63.33
2022-12-05T06:46:41.045Z,67.47
2022-12-05T06:51:44.569Z,67.60
2022-12-05T06:56:47.638Z,68.07
2022-12-05T07:01:50.778Z,68.53
2022-12-05T07:06:56.089Z,68.30
2022-12-05T07:11:59.135Z,62.70
2022-12-05T07:17:02.255Z,73.37
2022-12-05T07:22:07.437Z,68.47
2022-12-05T07:27:15.463Z,66.30
2022-12-05T07:32:18.607Z,62.07
2022-12-05T07:37:21.674Z,73.70
2022-12-05T07:42:24.824Z,80.33
2022-12-05T07:47:29.640Z,75.87
2022-12-05T07:52:32.711Z,74.50
2022-12-05T07:57:35.895Z,70.73
2022-12-05T08:02:40.858Z,79.07
2022-12-05T08:07:44.202Z,76.97
2022-12-05T08:12:47.257Z,77.50
2022-12-05T08:17:50.252Z,77.40
2022-12-05T08:22:54.360Z,72.37
2022-12-05T08:27:57.428Z,81.30
2022-12-05T08:33:00.513Z,77.53
2022-12-05T08:38:03.561Z,77.33
2022-12-05T08:43:06.617Z,79.73
2022-12-05T08:48:09.618Z,74.77
2022-12-05T08:53:12.874Z,79.40
2022-12-05T08:58:15.958Z,84.10
2022-12-05T09:03:18.991Z,87.00
2022-12-05T09:08:22.052Z,76.43
2022-12-05T09:13:25.171Z,83.47
2022-12-05T09:18:28.277Z,84.33
2022-12-05T09:23:31.350Z,87.17
2022-12-05T09:28:35.488Z,86.97
2022-12-05T09:33:39.832Z,88.03
2022-12-05T09:38:43.389Z,71.63
2022-12-05T09:43:54.792Z,78.87
2022-12-05T09:49:00.277Z,64.40
2022-12-05T09:54:04.252Z,65.80
2022-12-05T09:59:17.440Z,73.70
2022-12-05T10:04:33.751Z,73.63
2022-12-05T10:10:01.663Z,70.23
2022-12-05T10:15:10.768Z,60.07
2022-12-05T10:20:24.930Z,59.37
2022-12-05T10:25:31.618Z,50.17
2022-12-05T10:30:37.195Z,42.23
2022-12-05T10:35:42.068Z,48.97
2022-12-05T10:40:50.262Z,45.37
2022-12-05T10:45:53.695Z,41.33
2022-12-05T10:50:58.316Z,45.53
2022-12-05T10:56:29.446Z,44.40
2022-12-05T11:01:25.935Z,48.33
2022-12-05T11:06:32.523Z,45.50
2022-12-05T11:11:35.827Z,46.57
2022-12-05T11:16:40.248Z,35.97
2022-12-05T11:21:44.243Z,26.27
2022-12-05T11:26:47.270Z,23.60
2022-12-05T11:31:53.234Z,22.10
2022-12-05T11:37:05.272Z,25.67
2022-12-05T11:42:29.885Z,21.17
2022-12-05T11:47:46.788Z,20.77
2022-12-05T11:53:22.231Z,18.83
2022-12-05T11:58:53.151Z,21.67
2022-12-05T12:04:37.666Z,24.07
2022-12-05T12:09:52.764Z,23.83
2022-12-05T12:15:33.529Z,21.80
2022-12-05T12:20:48.458Z,22.40
2022-12-05T12:26:19.941Z,21.43
2022-12-05T12:31:53.006Z,23.57
2022-12-05T12:37:38.066Z,22.03
2022-12-05T12:42:57.038Z,25.60
2022-12-05T12:48:15.154Z,21.40
2022-12-05T12:53:26.949Z,23.17
2022-12-05T12:58:52.599Z,24.63
2022-12-05T13:04:03.092Z,22.00
2022-12-05T13:09:15.274Z,23.77
2022-12-05T13:14:25.404Z,21.60
2022-12-05T13:19:39.167Z,21.60
2022-12-05T13:24:43.031Z,24.67
2022-12-05T13:29:53.921Z,21.43
2022-12-05T13:35:00.335Z,25.27
2022-12-05T13:40:22.791Z,28.03
2022-12-05T13:45:26.117Z,24.00
2022-12-05T13:50:46.822Z,21.27
2022-12-05T13:56:03.236Z,24.13
2022-12-05T14:01:24.939Z,24.10
2022-12-05T14:06:50.991Z,23.47
2022-12-05T14:12:17.328Z,23.70
2022-12-05T14:17:20.397Z,24.43
2022-12-05T14:22:46.587Z,24.13
2022-12-05T14:28:10.587Z,21.80
2022-12-05T14:33:18.310Z,24.43
2022-12-05T14:38:23.983Z,23.40
2022-12-05T14:43:34.807Z,22.33
2022-12-05T14:48:47.391Z,21.63
2022-12-05T14:53:53.392Z,23.37
2022-12-05T14:58:59.406Z,21.13
2022-12-05T15:04:08.632Z,19.70
2022-12-05T15:09:36.951Z,23.50
2022-12-05T15:15:07.914Z,21.17
2022-12-05T15:20:40.758Z,22.13
2022-12-05T15:25:44.139Z,21.73
2022-12-05T15:30:56.445Z,25.43
2022-12-05T15:36:00.869Z,21.67
2022-12-05T15:41:06.391Z,22.73
2022-12-05T15:46:25.454Z,18.67
2022-12-05T15:51:37.095Z,20.53
2022-12-05T15:56:46.416Z,21.50
2022-12-05T16:01:55.542Z,21.37
2022-12-05T16:07:03.785Z,20.30
2022-12-05T16:12:37.958Z,20.47
2022-12-05T16:17:55.468Z,27.30
2022-12-05T16:23:24.852Z,26.37
2022-12-05T16:28:34.522Z,27.47
2022-12-05T16:33:41.907Z,30.17
2022-12-05T16:38:47.182Z,27.80
2022-12-05T16:43:53.226Z,25.40
2022-12-05T16:49:18.004Z,26.23
2022-12-05T16:54:21.204Z,28.53
2022-12-05T16:59:29.431Z,24.97
2022-12-05T17:04:32.595Z,24.37
2022-12-05T17:09:36.040Z,24.23
2022-12-05T17:14:39.143Z,26.03
2022-12-05T17:19:42.282Z,22.63
2022-12-05T17:24:45.456Z,22.73
2022-12-05T17:29:48.661Z,15.43
2022-12-05T17:34:51.749Z,13.73
2022-12-05T17:39:54.945Z,9.37
2022-12-05T17:44:58.318Z,11.57
2022-12-05T17:50:02.155Z,10.17
2022-12-05T17:55:05.662Z,8.83
2022-12-05T18:00:09.831Z,6.43
2022-12-05T18:05:14.473Z,8.03
2022-12-05T18:10:20.137Z,7.47
2022-12-05T18:15:23.205Z,7.50
2022-12-05T18:20:27.710Z,6.57
2022-12-05T18:25:32.198Z,7.23
2022-12-05T18:30:35.315Z,8.77
2022-12-05T18:35:41.823Z,11.03
2022-12-05T18:40:44.912Z,9.30
2022-12-05T18:45:56.269Z,9.27
2022-12-05T18:51:11.318Z,7.60
2022-12-05T18:56:23.426Z,8.57
2022-12-05T19:01:28.869Z,8.97
2022-12-05T19:06:36.386Z,10.30
2022-12-05T19:11:47.132Z,11.17
2022-12-05T19:16:58.277Z,10.97
2022-12-05T19:22:03.230Z,10.43
2022-12-05T19:27:06.418Z,11.93
2022-12-05T19:32:10.170Z,13.23
2022-12-05T19:37:13.308Z,10.63
2022-12-05T19:42:16.446Z,12.03
2022-12-05T19:47:19.549Z,13.63
2022-12-05T19:52:22.656Z,11.40
2022-12-05T19:57:30.967Z,10.60
2022-12-05T20:02:39.723Z,12.10
2022-12-05T20:07:43.461Z,14.77
2022-12-05T20:12:46.685Z,12.90
2022-12-05T20:17:53.186Z,11.30
2022-12-05T20:22:56.574Z,10.00
2022-12-05T20:27:59.803Z,12.40
2022-12-05T20:33:03.000Z,14.37
2022-12-05T20:38:06.279Z,14.37
2022-12-05T20:43:09.427Z,14.73
2022-12-05T20:48:12.528Z,14.73
2022-12-05T20:53:15.753Z,11.43
2022-12-05T20:58:18.872Z,11.53
2022-12-05T21:03:21.905Z,13.83
2022-12-05T21:08:25.107Z,11.20
2022-12-05T21:13:28.448Z,10.50
2022-12-05T21:18:31.908Z,10.33
2022-12-05T21:23:35.231Z,11.27
2022-12-05T21:28:38.589Z,11.43
2022-12-05T21:33:43.406Z,9.47
2022-12-05T21:38:50.915Z,11.57
2022-12-05T21:43:58.612Z,9.30
2022-12-05T21:49:01.742Z,9.43
2022-12-05T21:54:04.836Z,8.67
2022-12-05T21:59:07.861Z,12.23
2022-12-05T22:04:11.027Z,7.57
2022-12-05T22:09:16.146Z,10.43
2022-12-05T22:14:19.316Z,10.77
2022-12-05T22:19:22.444Z,9.10
2022-12-05T22:24:25.497Z,6.27
2022-12-05T22:29:28.576Z,7.40
2022-12-05T22:34:31.699Z,7.50
2022-12-05T22:39:34.774Z,8.80
2022-12-05T22:44:37.725Z,9.57
2022-12-05T22:49:40.710Z,9.37
2022-12-05T22:54:43.792Z,7.33
2022-12-05T22:59:46.905Z,9.30
2022-12-05T23:04:50.076Z,7.93
2022-12-05T23:09:53.160Z,7.43
2022-12-05T23:14:56.308Z,9.47
2022-12-05T23:19:59.741Z,9.93
2022-12-05T23:25:03.034Z,8.10
2022-12-05T23:30:08.115Z,8.27
2022-12-05T23:35:12.015Z,9.70
2022-12-05T23:40:17.055Z,7.90
2022-12-05T23:45:20.111Z,9.70
2022-12-05T23:50:23.959Z,7.10
2022-12-05T23:55:27.106Z,7.83
